createdAt,value
2022-08-22T00:00:57.781Z,10.65
2022-08-22T00:02:54.722Z,8.75
2022-08-22T00:03:45.456Z,8.43
2022-08-22T00:06:25.920Z,10.00
2022-08-22T00:09:18.618Z,9.73
2022-08-22T00:11:57.432Z,7.72
2022-08-22T00:14:34.938Z,11.30
2022-08-22T00:17:20.756Z,7.63
2022-08-22T00:20:30.343Z,7.35
2022-08-22T00:23:02.479Z,12.40
2022-08-22T00:28:16.347Z,9.20
2022-08-22T00:30:54.827Z,8.63
2022-08-22T00:33:37.587Z,9.70
2022-08-22T00:36:25.466Z,11.05
2022-08-22T00:39:04.339Z,11.02
2022-08-22T00:42:09.981Z,10.73
2022-08-22T00:44:57.685Z,9.40
2022-08-22T00:47:39.048Z,14.05
2022-08-22T00:50:31.923Z,11.47
2022-08-22T00:53:38.154Z,12.55
2022-08-22T00:56:26.004Z,10.80
2022-08-22T00:58:55.367Z,8.85
2022-08-22T01:01:36.115Z,9.95
2022-08-22T01:04:43.981Z,9.13
2022-08-22T01:07:35.352Z,11.80
2022-08-22T01:10:23.854Z,9.30
2022-08-22T01:13:20.399Z,14.52
2022-08-22T01:15:50.068Z,7.35
2022-08-22T01:18:46.310Z,8.90
2022-08-22T01:21:52.512Z,9.63
2022-08-22T01:25:08.905Z,8.65
2022-08-22T01:27:53.822Z,8.77
2022-08-22T01:30:49.403Z,9.80
2022-08-22T01:33:34.556Z,10.45
2022-08-22T01:36:30.338Z,7.95
2022-08-22T01:39:35.608Z,9.13
2022-08-22T01:42:02.465Z,13.38
2022-08-22T01:44:44.206Z,7.95
2022-08-22T01:47:39.224Z,7.65
2022-08-22T01:50:35.869Z,7.25
2022-08-22T01:53:14.363Z,9.60
2022-08-22T01:55:59.822Z,10.65
2022-08-22T01:58:33.168Z,10.10
2022-08-22T02:01:11.553Z,10.00
2022-08-22T02:04:15.165Z,10.98
2022-08-22T02:06:52.407Z,8.05
2022-08-22T02:09:50.893Z,9.05
2022-08-22T02:12:30.104Z,8.77
2022-08-22T02:15:15.487Z,11.38
2022-08-22T02:18:06.323Z,10.90
2022-08-22T02:20:51.167Z,8.45
2022-08-22T02:23:43.612Z,7.65
2022-08-22T02:28:58.063Z,8.70
2022-08-22T02:31:41.317Z,8.32
2022-08-22T02:34:40.109Z,10.77
2022-08-22T02:37:16.730Z,7.95
2022-08-22T02:39:51.808Z,11.80
2022-08-22T02:42:34.296Z,8.55
2022-08-22T02:45:15.896Z,8.55
2022-08-22T02:48:09.264Z,11.52
2022-08-22T02:50:47.724Z,8.63
2022-08-22T02:53:38.826Z,10.13
2022-08-22T02:56:18.704Z,10.75
2022-08-22T02:59:13.718Z,7.38
2022-08-22T03:01:43.880Z,7.97
2022-08-22T03:04:45.478Z,9.48
2022-08-22T03:07:29.191Z,8.30
2022-08-22T03:10:18.087Z,8.10
2022-08-22T03:13:02.486Z,10.07
2022-08-22T03:15:49.255Z,10.30
2022-08-22T03:18:20.144Z,8.55
2022-08-22T03:20:59.043Z,11.18
2022-08-22T03:23:40.551Z,12.07
2022-08-22T03:26:22.495Z,7.97
2022-08-22T03:29:01.187Z,5.53
2022-08-22T03:31:30.472Z,6.88
2022-08-22T03:34:22.518Z,11.93
2022-08-22T03:37:15.229Z,7.90
2022-08-22T03:39:50.608Z,7.93
2022-08-22T03:42:35.814Z,8.00
2022-08-22T03:45:14.481Z,8.27
2022-08-22T03:48:05.056Z,7.40
2022-08-22T03:51:03.692Z,8.65
2022-08-22T03:53:42.336Z,10.43
2022-08-22T03:56:44.688Z,6.75
2022-08-22T03:59:36.547Z,9.85
2022-08-22T04:02:54.733Z,9.20
2022-08-22T04:05:58.141Z,9.40
2022-08-22T04:08:52.279Z,10.27
2022-08-22T04:11:42.866Z,7.80
2022-08-22T04:14:35.631Z,7.10
2022-08-22T04:17:27.307Z,10.15
2022-08-22T04:20:20.791Z,8.90
2022-08-22T04:23:02.673Z,15.07
2022-08-22T04:25:52.165Z,11.70
2022-08-22T04:28:39.660Z,8.80
2022-08-22T04:31:12.819Z,11.10
2022-08-22T04:34:01.129Z,13.77
2022-08-22T04:36:33.203Z,12.07
2022-08-22T04:42:31.622Z,7.80
2022-08-22T04:45:03.534Z,9.65
2022-08-22T04:48:08.978Z,7.82
2022-08-22T04:51:04.504Z,8.00
2022-08-22T04:54:00.394Z,9.82
2022-08-22T04:56:52.599Z,9.27
2022-08-22T04:59:19.585Z,8.48
2022-08-22T05:01:55.236Z,11.82
2022-08-22T05:04:29.343Z,8.38
2022-08-22T05:07:04.457Z,11.55
2022-08-22T05:09:34.216Z,9.95
2022-08-22T05:12:09.117Z,10.55
2022-08-22T05:14:49.084Z,12.88
2022-08-22T05:17:21.256Z,8.15
2022-08-22T05:22:23.982Z,10.70
2022-08-22T05:24:57.081Z,11.30
2022-08-22T05:27:28.548Z,10.98
2022-08-22T05:30:11.695Z,15.45
2022-08-22T05:33:03.832Z,10.02
2022-08-22T05:35:40.680Z,9.63
2022-08-22T05:38:12.374Z,14.00
2022-08-22T05:40:40.770Z,12.18
2022-08-22T05:43:11.357Z,13.18
2022-08-22T05:45:43.584Z,9.38
2022-08-22T05:48:24.926Z,9.32
2022-08-22T05:50:59.335Z,9.38
2022-08-22T05:53:35.806Z,10.23
2022-08-22T05:56:07.964Z,15.13
2022-08-22T06:01:38.173Z,14.38
2022-08-22T06:04:17.447Z,12.40
2022-08-22T06:07:13.596Z,16.02
2022-08-22T06:09:46.627Z,13.75
2022-08-22T06:12:22.298Z,13.95
2022-08-22T06:14:57.569Z,10.90
2022-08-22T06:17:35.986Z,13.25
2022-08-22T06:20:05.638Z,10.35
2022-08-22T06:22:43.572Z,16.75
2022-08-22T06:25:41.446Z,13.50
2022-08-22T06:28:11.409Z,10.60
2022-08-22T06:30:42.237Z,17.38
2022-08-22T06:33:15.919Z,12.32
2022-08-22T06:36:06.486Z,16.48
2022-08-22T06:38:52.837Z,16.30
2022-08-22T06:41:22.527Z,15.48
2022-08-22T06:43:52.667Z,16.52
2022-08-22T06:46:22.200Z,21.65
2022-08-22T06:48:49.218Z,14.77
2022-08-22T06:51:20.331Z,15.50
2022-08-22T06:53:54.724Z,17.42
2022-08-22T06:56:25.502Z,17.75
2022-08-22T06:59:00.809Z,14.65
2022-08-22T07:01:37.511Z,17.65
2022-08-22T07:04:14.257Z,16.45
2022-08-22T07:06:45.934Z,20.00
2022-08-22T07:09:31.169Z,19.13
2022-08-22T07:12:01.634Z,20.58
2022-08-22T07:14:39.171Z,16.63
2022-08-22T07:17:09.267Z,15.18
2022-08-22T07:19:46.201Z,16.73
2022-08-22T07:22:17.029Z,22.90
2022-08-22T07:24:48.255Z,23.83
2022-08-22T07:27:38.903Z,22.83
2022-08-22T07:30:17.878Z,15.75
2022-08-22T07:33:25.150Z,15.48
2022-08-22T07:36:05.876Z,15.85
2022-08-22T07:38:42.898Z,20.70
2022-08-22T07:41:20.633Z,19.45
2022-08-22T07:44:01.097Z,20.52
2022-08-22T07:46:41.178Z,18.80
2022-08-22T07:49:10.605Z,19.08
2022-08-22T07:51:46.496Z,32.72
2022-08-22T07:54:27.130Z,16.98
2022-08-22T07:56:59.995Z,21.40
2022-08-22T07:59:28.515Z,19.15
2022-08-22T08:01:59.821Z,16.40
2022-08-22T08:04:36.884Z,25.85
2022-08-22T08:07:08.495Z,15.80
2022-08-22T08:09:41.287Z,18.48
2022-08-22T08:12:12.260Z,14.90
2022-08-22T08:14:42.496Z,19.42
2022-08-22T08:17:34.294Z,20.75
2022-08-22T08:20:08.634Z,14.55
2022-08-22T08:22:38.387Z,20.42
2022-08-22T08:25:07.473Z,15.35
2022-08-22T08:27:56.725Z,20.08
2022-08-22T08:30:40.196Z,19.67
2022-08-22T08:33:24.250Z,15.77
2022-08-22T08:36:09.997Z,16.98
2022-08-22T08:38:47.810Z,20.30
2022-08-22T08:41:22.110Z,18.38
2022-08-22T08:44:04.347Z,19.65
2022-08-22T08:46:57.332Z,20.92
2022-08-22T08:49:42.113Z,25.95
2022-08-22T08:52:34.435Z,21.38
2022-08-22T08:58:11.093Z,20.33
2022-08-22T09:00:42.792Z,21.40
2022-08-22T09:03:56.158Z,18.90
2022-08-22T09:09:58.202Z,22.90
2022-08-22T09:12:56.272Z,23.80
2022-08-22T09:16:04.932Z,15.05
2022-08-22T09:18:53.226Z,16.88
2022-08-22T09:21:31.532Z,18.80
2022-08-22T09:24:30.720Z,19.23
2022-08-22T09:27:06.604Z,17.80
2022-08-22T09:30:11.558Z,15.93
2022-08-22T09:32:54.606Z,19.25
2022-08-22T09:35:34.389Z,20.30
2022-08-22T09:38:28.234Z,22.33
2022-08-22T09:41:13.214Z,22.17
2022-08-22T09:43:57.658Z,15.95
2022-08-22T09:46:37.687Z,17.98
2022-08-22T09:49:23.726Z,19.50
2022-08-22T09:52:33.119Z,17.63
2022-08-22T09:55:08.099Z,14.95
2022-08-22T09:57:54.026Z,15.77
2022-08-22T10:00:27.726Z,14.10
2022-08-22T10:03:19.536Z,17.88
2022-08-22T10:05:57.562Z,19.90
2022-08-22T10:08:49.462Z,14.10
2022-08-22T10:11:32.334Z,17.05
2022-08-22T10:14:22.996Z,12.93
2022-08-22T10:17:10.365Z,16.00
2022-08-22T10:19:52.839Z,20.63
2022-08-22T10:22:30.261Z,17.15
2022-08-22T10:25:22.729Z,16.33
2022-08-22T10:28:10.428Z,13.15
2022-08-22T10:31:10.969Z,12.25
2022-08-22T10:34:05.938Z,14.93
2022-08-22T10:37:14.511Z,15.32
2022-08-22T10:40:05.501Z,9.73
2022-08-22T10:42:46.714Z,13.67
2022-08-22T10:45:24.040Z,19.23
2022-08-22T10:48:08.793Z,14.77
2022-08-22T10:50:48.623Z,17.45
2022-08-22T10:53:58.885Z,14.45
2022-08-22T10:56:51.002Z,11.10
2022-08-22T10:59:51.008Z,14.15
2022-08-22T11:02:55.216Z,15.45
2022-08-22T11:05:44.878Z,17.58
2022-08-22T11:11:32.945Z,14.77
2022-08-22T11:14:18.844Z,13.00
2022-08-22T11:17:02.795Z,13.75
2022-08-22T11:20:19.473Z,13.80
2022-08-22T11:23:08.227Z,14.93
2022-08-22T11:26:04.866Z,15.10
2022-08-22T11:29:14.114Z,13.35
2022-08-22T11:31:55.232Z,14.77
2022-08-22T11:35:00.702Z,17.10
2022-08-22T11:37:45.638Z,15.20
2022-08-22T11:40:22.826Z,12.38
2022-08-22T11:43:41.427Z,13.05
2022-08-22T11:46:32.176Z,11.40
2022-08-22T11:49:16.967Z,12.57
2022-08-22T11:52:03.829Z,10.18
2022-08-22T11:54:42.264Z,10.27
2022-08-22T11:57:20.445Z,17.88
2022-08-22T12:00:06.402Z,13.40
2022-08-22T12:03:01.579Z,12.65
2022-08-22T12:05:45.586Z,12.48
2022-08-22T12:08:25.914Z,10.05
2022-08-22T12:11:09.852Z,13.13
2022-08-22T12:13:50.440Z,13.73
2022-08-22T12:16:29.625Z,18.67
2022-08-22T12:19:27.292Z,13.10
2022-08-22T12:22:34.673Z,19.77
2022-08-22T12:27:36.880Z,11.80
2022-08-22T12:30:24.536Z,15.50
2022-08-22T12:33:23.311Z,13.05
2022-08-22T12:36:00.149Z,14.55
2022-08-22T12:38:50.839Z,14.45
2022-08-22T12:41:35.165Z,10.90
2022-08-22T12:44:16.415Z,10.88
2022-08-22T12:47:05.318Z,12.00
2022-08-22T12:50:06.012Z,15.55
2022-08-22T12:52:38.464Z,15.13
2022-08-22T12:55:21.432Z,12.55
2022-08-22T12:58:18.323Z,9.50
2022-08-22T13:00:48.044Z,12.07
2022-08-22T13:03:44.218Z,12.27
2022-08-22T13:06:35.764Z,14.18
2022-08-22T13:12:02.422Z,13.85
2022-08-22T13:14:33.906Z,14.20
2022-08-22T13:17:15.191Z,14.85
2022-08-22T13:20:06.007Z,14.43
2022-08-22T13:22:38.888Z,13.75
2022-08-22T13:25:38.260Z,14.15
2022-08-22T13:28:11.901Z,9.95
2022-08-22T13:30:41.162Z,10.15
2022-08-22T13:33:21.792Z,8.98
2022-08-22T13:35:53.886Z,11.10
2022-08-22T13:38:39.925Z,12.77
2022-08-22T13:41:18.751Z,11.70
2022-08-22T13:44:06.624Z,11.52
2022-08-22T13:46:35.712Z,10.10
2022-08-22T13:49:07.164Z,13.63
2022-08-22T13:51:53.106Z,11.10
2022-08-22T13:54:46.526Z,11.25
2022-08-22T13:57:31.671Z,13.45
2022-08-22T14:00:28.618Z,12.20
2022-08-22T14:03:01.385Z,11.23
2022-08-22T14:05:33.936Z,11.60
2022-08-22T14:08:12.698Z,14.27
2022-08-22T14:10:55.085Z,10.10
2022-08-22T14:13:40.300Z,11.57
2022-08-22T14:16:13.357Z,15.45
2022-08-22T14:18:49.164Z,13.30
2022-08-22T14:21:25.011Z,11.93
2022-08-22T14:23:55.160Z,9.90
2022-08-22T14:26:47.363Z,11.55
2022-08-22T14:29:18.693Z,16.60
2022-08-22T14:34:23.154Z,8.70
2022-08-22T14:37:21.247Z,11.63
2022-08-22T14:39:56.018Z,11.93
2022-08-22T14:42:27.005Z,9.05
2022-08-22T14:45:13.239Z,13.00
2022-08-22T14:47:54.961Z,13.50
2022-08-22T14:51:03.864Z,11.02
2022-08-22T14:53:34.047Z,8.82
2022-08-22T14:56:07.721Z,9.87
2022-08-22T14:58:57.934Z,10.07
2022-08-22T15:01:29.817Z,12.75
2022-08-22T15:04:18.887Z,13.25
2022-08-22T15:06:58.558Z,10.07
2022-08-22T15:09:50.883Z,12.18
2022-08-22T15:12:31.384Z,9.73
2022-08-22T15:17:53.506Z,12.93
2022-08-22T15:20:36.290Z,12.05
2022-08-22T15:23:23.266Z,12.93
2022-08-22T15:26:01.231Z,11.48
2022-08-22T15:28:53.043Z,13.75
2022-08-22T15:31:20.524Z,8.82
2022-08-22T15:33:51.422Z,12.95
2022-08-22T15:36:25.597Z,8.95
2022-08-22T15:39:15.248Z,11.02
2022-08-22T15:41:48.398Z,12.55
2022-08-22T15:44:32.135Z,10.45
2022-08-22T15:47:09.053Z,12.23
2022-08-22T15:49:50.805Z,10.25
2022-08-22T15:53:06.825Z,13.63
2022-08-22T15:55:35.351Z,13.90
2022-08-22T15:58:22.499Z,13.45
2022-08-22T16:01:20.030Z,13.90
2022-08-22T16:04:04.826Z,12.55
2022-08-22T16:06:51.287Z,10.80
2022-08-22T16:09:39.015Z,12.57
2022-08-22T16:12:10.262Z,13.57
2022-08-22T16:14:36.868Z,13.52
2022-08-22T16:17:26.426Z,18.42
2022-08-22T16:20:09.899Z,12.88
2022-08-22T16:22:56.515Z,13.93
2022-08-22T16:25:44.706Z,9.88
2022-08-22T16:28:47.770Z,8.85
2022-08-22T16:31:29.689Z,14.70
2022-08-22T16:34:18.588Z,12.43
2022-08-22T16:37:03.365Z,10.00
2022-08-22T16:39:36.223Z,11.50
2022-08-22T16:42:22.377Z,16.48
2022-08-22T16:45:05.484Z,11.60
2022-08-22T16:47:56.413Z,12.57
2022-08-22T16:50:37.167Z,17.83
2022-08-22T16:53:11.500Z,13.48
2022-08-22T16:55:45.042Z,15.38
2022-08-22T16:58:57.910Z,13.93
2022-08-22T17:01:33.314Z,13.68
2022-08-22T17:04:14.523Z,16.05
2022-08-22T17:07:13.144Z,12.52
2022-08-22T17:10:12.341Z,12.88
2022-08-22T17:12:54.195Z,11.48
2022-08-22T17:15:23.588Z,12.85
2022-08-22T17:18:25.584Z,14.77
2022-08-22T17:21:15.530Z,11.60
2022-08-22T17:24:03.471Z,12.70
2022-08-22T17:26:41.913Z,17.88
2022-08-22T17:29:26.807Z,14.55
2022-08-22T17:31:55.113Z,13.32
2022-08-22T17:34:24.508Z,13.35
2022-08-22T17:37:06.454Z,11.13
2022-08-22T17:39:55.959Z,13.27
2022-08-22T17:42:46.375Z,13.68
2022-08-22T17:45:28.191Z,11.70
2022-08-22T17:48:06.703Z,11.13
2022-08-22T17:50:54.937Z,10.88
2022-08-22T17:53:45.960Z,11.07
2022-08-22T17:56:26.547Z,11.13
2022-08-22T17:59:12.647Z,15.33
2022-08-22T18:01:50.427Z,10.13
2022-08-22T18:04:29.171Z,13.77
2022-08-22T18:07:18.496Z,13.45
2022-08-22T18:09:55.234Z,10.30
2022-08-22T18:12:34.682Z,10.82
2022-08-22T18:15:29.772Z,14.02
2022-08-22T18:17:56.664Z,13.70
2022-08-22T18:20:37.612Z,17.33
2022-08-22T18:23:38.992Z,16.87
2022-08-22T18:26:14.628Z,17.23
2022-08-22T18:28:55.915Z,12.18
2022-08-22T18:31:39.202Z,17.58
2022-08-22T18:34:18.524Z,17.42
2022-08-22T18:36:58.422Z,13.13
2022-08-22T18:39:46.673Z,18.25
2022-08-22T18:42:54.592Z,12.50
2022-08-22T18:45:45.962Z,13.90
2022-08-22T18:48:31.775Z,14.77
2022-08-22T18:51:38.710Z,11.20
2022-08-22T18:54:05.530Z,10.07
2022-08-22T18:56:40.431Z,13.10
2022-08-22T18:59:18.799Z,13.18
2022-08-22T19:01:52.508Z,16.25
2022-08-22T19:04:42.864Z,14.48
2022-08-22T19:07:30.679Z,9.43
2022-08-22T19:10:35.900Z,13.45
2022-08-22T19:13:11.346Z,15.02
2022-08-22T19:16:11.187Z,16.95
2022-08-22T19:18:40.472Z,12.60
2022-08-22T19:21:53.067Z,9.40
2022-08-22T19:24:19.626Z,14.40
2022-08-22T19:27:18.282Z,9.30
2022-08-22T19:29:45.016Z,16.85
2022-08-22T19:32:46.687Z,12.27
2022-08-22T19:35:23.975Z,13.15
2022-08-22T19:38:02.559Z,14.35
2022-08-22T19:40:53.195Z,16.60
2022-08-22T19:43:42.055Z,10.85
2022-08-22T19:46:11.874Z,14.48
2022-08-22T19:48:48.777Z,12.45
2022-08-22T19:51:21.539Z,15.38
2022-08-22T19:54:20.301Z,18.67
2022-08-22T19:56:56.364Z,12.13
2022-08-22T19:59:50.737Z,13.45
2022-08-22T20:02:35.187Z,11.73
2022-08-22T20:05:29.964Z,9.38
2022-08-22T20:08:08.936Z,12.10
2022-08-22T20:11:02.977Z,13.20
2022-08-22T20:13:35.303Z,10.25
2022-08-22T20:16:23.287Z,11.27
2022-08-22T20:19:07.797Z,13.98
2022-08-22T20:21:50.026Z,11.73
2022-08-22T20:24:25.060Z,10.18
2022-08-22T20:27:13.483Z,10.00
2022-08-22T20:29:49.062Z,12.35
2022-08-22T20:32:19.370Z,10.50
2022-08-22T20:34:47.374Z,10.93
2022-08-22T20:37:32.344Z,12.57
2022-08-22T20:40:08.311Z,12.32
2022-08-22T20:42:55.371Z,13.02
2022-08-22T20:45:29.582Z,14.90
2022-08-22T20:47:57.604Z,11.15
2022-08-22T20:50:26.174Z,11.43
2022-08-22T20:53:14.846Z,20.00
2022-08-22T20:55:53.155Z,10.15
2022-08-22T20:58:24.271Z,12.73
2022-08-22T21:00:55.526Z,16.40
2022-08-22T21:03:40.883Z,11.40
2022-08-22T21:06:15.914Z,17.20
2022-08-22T21:08:44.666Z,12.35
2022-08-22T21:11:39.955Z,13.80
2022-08-22T21:14:24.166Z,16.48
2022-08-22T21:16:51.398Z,17.58
2022-08-22T21:19:26.711Z,14.90
2022-08-22T21:21:53.722Z,12.05
2022-08-22T21:24:20.528Z,12.35
2022-08-22T21:27:00.550Z,13.50
2022-08-22T21:29:33.836Z,9.93
2022-08-22T21:32:24.642Z,11.38
2022-08-22T21:34:52.080Z,9.13
2022-08-22T21:37:23.414Z,11.25
2022-08-22T21:39:58.421Z,14.50
2022-08-22T21:42:38.745Z,14.93
2022-08-22T21:45:31.969Z,12.52
2022-08-22T21:47:59.639Z,12.75
2022-08-22T21:50:34.491Z,13.25
2022-08-22T21:53:11.873Z,11.40
2022-08-22T21:55:44.439Z,14.07
2022-08-22T21:58:36.972Z,13.70
2022-08-22T22:01:31.045Z,15.25
2022-08-22T22:03:59.338Z,16.00
2022-08-22T22:06:26.622Z,11.45
2022-08-22T22:08:53.325Z,13.57
2022-08-22T22:11:19.996Z,9.45
2022-08-22T22:13:46.824Z,14.48
2022-08-22T22:16:13.572Z,17.77
2022-08-22T22:18:40.573Z,14.10
2022-08-22T22:21:08.368Z,11.85
2022-08-22T22:23:35.230Z,16.08
2022-08-22T22:26:04.225Z,14.23
2022-08-22T22:28:35.413Z,11.77
2022-08-22T22:31:03.461Z,13.43
2022-08-22T22:33:33.650Z,12.80
2022-08-22T22:36:16.369Z,11.35
2022-08-22T22:38:43.219Z,12.57
2022-08-22T22:41:11.261Z,11.65
2022-08-22T22:43:37.895Z,15.60
2022-08-22T22:46:04.812Z,15.45
2022-08-22T22:48:32.082Z,11.98
2022-08-22T22:50:58.857Z,15.77
2022-08-22T22:53:38.178Z,13.32
2022-08-22T22:56:06.650Z,13.65
2022-08-22T22:58:35.598Z,10.70
2022-08-22T23:01:31.514Z,15.52
2022-08-22T23:04:05.416Z,12.18
2022-08-22T23:06:32.987Z,12.88
2022-08-22T23:08:59.688Z,14.73
2022-08-22T23:11:31.103Z,15.73
2022-08-22T23:13:58.215Z,16.33
2022-08-22T23:16:28.049Z,16.55
2022-08-22T23:18:55.494Z,11.45
2022-08-22T23:21:27.799Z,13.85
2022-08-22T23:23:56.734Z,16.60
2022-08-22T23:26:23.742Z,17.15
2022-08-22T23:28:50.611Z,14.18
2022-08-22T23:31:19.342Z,16.83
2022-08-22T23:33:46.502Z,13.23
2022-08-22T23:36:20.719Z,18.02
2022-08-22T23:38:48.624Z,16.60
2022-08-22T23:41:17.861Z,16.52
2022-08-22T23:43:47.297Z,15.27
2022-08-22T23:46:15.447Z,14.75
2022-08-22T23:48:42.528Z,15.25
2022-08-22T23:51:15.459Z,14.02
2022-08-22T23:53:44.265Z,13.07
2022-08-22T23:56:19.412Z,19.52
2022-08-22T23:58:48.273Z,16.48
